createdAt,value
2023-08-15T00:00:39.452Z,22.06
2023-08-15T00:01:45.666Z,22.04
2023-08-15T00:02:39.451Z,22.04
2023-08-15T00:03:39.482Z,22.05
2023-08-15T00:04:39.343Z,22.07
2023-08-15T00:05:40.334Z,22.10
2023-08-15T00:06:45.670Z,22.14
2023-08-15T00:07:39.341Z,22.19
2023-08-15T00:08:39.256Z,22.24
2023-08-15T00:09:39.447Z,22.29
2023-08-15T00:10:39.268Z,22.33
2023-08-15T00:11:39.255Z,22.38
2023-08-15T00:12:45.704Z,22.43
2023-08-15T00:13:40.286Z,22.48
2023-08-15T00:14:39.291Z,22.53
2023-08-15T00:15:39.199Z,22.57
2023-08-15T00:16:39.296Z,22.61
2023-08-15T00:17:45.470Z,22.65
2023-08-15T00:18:39.176Z,22.68
2023-08-15T00:19:39.145Z,22.69
2023-08-15T00:20:39.192Z,22.70
2023-08-15T00:21:39.083Z,22.71
2023-08-15T00:22:45.394Z,22.71
2023-08-15T00:23:39.215Z,22.72
2023-08-15T00:24:39.065Z,22.71
2023-08-15T00:25:39.054Z,22.71
2023-08-15T00:26:39.378Z,22.71
2023-08-15T00:27:45.454Z,22.72
2023-08-15T00:28:39.023Z,22.72
2023-08-15T00:29:40.086Z,22.73
2023-08-15T00:30:39.066Z,22.74
2023-08-15T00:31:39.008Z,22.75
2023-08-15T00:32:39.104Z,22.76
2023-08-15T00:33:45.259Z,22.77
2023-08-15T00:34:38.950Z,22.78
2023-08-15T00:35:39.856Z,22.78
2023-08-15T00:36:39.004Z,22.78
2023-08-15T00:37:38.942Z,22.78
2023-08-15T00:38:38.901Z,22.78
2023-08-15T00:39:45.191Z,22.79
2023-08-15T00:40:39.735Z,22.81
2023-08-15T00:41:38.963Z,22.81
2023-08-15T00:42:38.825Z,22.80
2023-08-15T00:43:38.934Z,22.77
2023-08-15T00:44:45.118Z,22.73
2023-08-15T00:45:38.862Z,22.67
2023-08-15T00:46:38.960Z,22.62
2023-08-15T00:47:38.894Z,22.56
2023-08-15T00:48:38.770Z,22.52
2023-08-15T00:49:38.808Z,22.48
2023-08-15T00:50:45.065Z,22.45
2023-08-15T00:51:38.769Z,22.43
2023-08-15T00:52:38.734Z,22.41
2023-08-15T00:53:38.806Z,22.39
2023-08-15T00:54:38.686Z,22.37
2023-08-15T00:55:44.944Z,22.35
2023-08-15T00:56:38.751Z,22.33
2023-08-15T00:57:38.729Z,22.31
2023-08-15T00:58:38.632Z,22.28
2023-08-15T00:59:38.651Z,22.26
2023-08-15T01:00:44.932Z,22.24
2023-08-15T01:01:38.625Z,22.22
2023-08-15T01:02:38.661Z,22.20
2023-08-15T01:03:38.668Z,22.19
2023-08-15T01:04:38.603Z,22.18
2023-08-15T01:05:44.859Z,22.19
2023-08-15T01:06:38.566Z,22.20
2023-08-15T01:07:38.520Z,22.22
2023-08-15T01:08:38.543Z,22.24
2023-08-15T01:09:38.555Z,22.27
2023-08-15T01:10:38.519Z,22.30
2023-08-15T01:11:44.805Z,22.33
2023-08-15T01:12:38.472Z,22.37
2023-08-15T01:13:38.490Z,22.40
2023-08-15T01:14:38.411Z,22.43
2023-08-15T01:15:38.811Z,22.46
2023-08-15T01:16:38.653Z,22.48
2023-08-15T01:17:44.695Z,22.50
2023-08-15T01:18:38.405Z,22.52
2023-08-15T01:19:38.493Z,22.54
2023-08-15T01:20:38.602Z,22.56
2023-08-15T01:21:38.338Z,22.58
2023-08-15T01:22:38.360Z,22.59
2023-08-15T01:23:44.744Z,22.61
2023-08-15T01:24:38.311Z,22.62
2023-08-15T01:25:38.359Z,22.63
2023-08-15T01:26:38.360Z,22.64
2023-08-15T01:27:38.292Z,22.65
2023-08-15T01:28:39.299Z,22.66
2023-08-15T01:29:38.314Z,22.66
2023-08-15T01:30:38.437Z,22.66
2023-08-15T01:31:38.409Z,22.66
2023-08-15T01:32:38.330Z,22.67
2023-08-15T01:33:44.542Z,22.66
2023-08-15T01:34:38.253Z,22.66
2023-08-15T01:35:38.216Z,22.66
2023-08-15T01:36:38.222Z,22.66
2023-08-15T01:37:38.173Z,22.67
2023-08-15T01:38:44.437Z,22.68
2023-08-15T01:39:38.213Z,22.70
2023-08-15T01:40:38.184Z,22.71
2023-08-15T01:41:38.177Z,22.72
2023-08-15T01:42:38.081Z,22.74
2023-08-15T01:43:44.418Z,22.75
2023-08-15T01:44:38.081Z,22.76
2023-08-15T01:45:38.182Z,22.77
2023-08-15T01:46:38.076Z,22.78
2023-08-15T01:47:38.252Z,22.78
2023-08-15T01:48:37.995Z,22.78
2023-08-15T01:49:44.294Z,22.77
2023-08-15T01:50:37.976Z,22.76
2023-08-15T01:51:38.254Z,22.76
2023-08-15T01:52:38.027Z,22.75
2023-08-15T01:53:37.955Z,22.75
2023-08-15T01:54:44.426Z,22.75
2023-08-15T01:55:37.928Z,22.75
2023-08-15T01:56:38.063Z,22.75
2023-08-15T01:57:37.930Z,22.75
2023-08-15T01:58:38.023Z,22.76
2023-08-15T01:59:44.262Z,22.77
2023-08-15T02:00:37.923Z,22.77
2023-08-15T02:01:37.976Z,22.78
2023-08-15T02:02:38.064Z,22.79
2023-08-15T02:03:37.918Z,22.80
2023-08-15T02:04:37.883Z,22.81
2023-08-15T02:05:44.128Z,22.83
2023-08-15T02:06:38.783Z,22.84
2023-08-15T02:07:38.091Z,22.86
2023-08-15T02:08:37.766Z,22.88
2023-08-15T02:09:37.821Z,22.90
2023-08-15T02:10:37.813Z,22.91
2023-08-15T02:11:44.098Z,22.93
2023-08-15T02:12:37.760Z,22.95
2023-08-15T02:13:37.947Z,22.97
2023-08-15T02:14:37.737Z,22.98
2023-08-15T02:15:37.668Z,23.00
2023-08-15T02:16:37.786Z,23.01
2023-08-15T02:17:43.985Z,23.03
2023-08-15T02:18:39.139Z,23.04
2023-08-15T02:19:37.631Z,23.05
2023-08-15T02:20:37.595Z,23.06
2023-08-15T02:21:37.645Z,23.07
2023-08-15T02:22:37.668Z,23.07
2023-08-15T02:23:43.876Z,23.08
2023-08-15T02:24:37.572Z,23.08
2023-08-15T02:25:37.673Z,23.09
2023-08-15T02:26:37.491Z,23.09
2023-08-15T02:27:37.562Z,23.09
2023-08-15T02:28:43.777Z,23.09
2023-08-15T02:29:37.493Z,23.10
2023-08-15T02:30:37.507Z,23.10
2023-08-15T02:31:37.512Z,23.10
2023-08-15T02:32:37.532Z,23.10
2023-08-15T02:33:43.735Z,23.10
2023-08-15T02:34:37.489Z,23.10
2023-08-15T02:35:37.420Z,23.11
2023-08-15T02:36:37.453Z,23.11
2023-08-15T02:37:37.527Z,23.11
2023-08-15T02:38:37.463Z,23.12
2023-08-15T02:39:43.644Z,23.12
2023-08-15T02:40:37.366Z,23.11
2023-08-15T02:41:37.322Z,23.10
2023-08-15T02:42:37.339Z,23.09
2023-08-15T02:43:37.316Z,23.08
2023-08-15T02:44:37.497Z,23.07
2023-08-15T02:45:43.596Z,23.07
2023-08-15T02:46:37.333Z,23.07
2023-08-15T02:47:37.361Z,23.07
2023-08-15T02:48:37.273Z,23.07
2023-08-15T02:49:37.521Z,23.07
2023-08-15T02:50:37.228Z,23.07
2023-08-15T02:51:43.549Z,23.08
2023-08-15T02:52:37.155Z,23.08
2023-08-15T02:53:37.221Z,23.08
2023-08-15T02:54:37.586Z,23.09
2023-08-15T02:55:37.149Z,23.09
2023-08-15T02:56:43.523Z,23.09
2023-08-15T02:57:37.175Z,23.09
2023-08-15T02:58:38.089Z,23.10
2023-08-15T02:59:37.169Z,23.10
2023-08-15T03:00:37.114Z,23.10
2023-08-15T03:01:44.506Z,23.10
2023-08-15T03:02:37.204Z,23.10
2023-08-15T03:03:37.048Z,23.11
2023-08-15T03:04:37.137Z,23.11
2023-08-15T03:05:37.984Z,23.11
2023-08-15T03:06:43.373Z,23.11
2023-08-15T03:07:37.046Z,23.11
2023-08-15T03:08:37.048Z,23.11
2023-08-15T03:09:37.211Z,23.11
2023-08-15T03:10:37.022Z,23.10
2023-08-15T03:11:44.406Z,23.10
2023-08-15T03:12:37.008Z,23.10
2023-08-15T03:13:36.933Z,23.10
2023-08-15T03:14:36.919Z,23.10
2023-08-15T03:15:36.927Z,23.10
2023-08-15T03:16:36.966Z,23.11
2023-08-15T03:17:43.252Z,23.10
2023-08-15T03:18:36.871Z,23.10
2023-08-15T03:19:36.924Z,23.10
2023-08-15T03:20:36.833Z,23.10
2023-08-15T03:21:36.836Z,23.10
2023-08-15T03:22:36.983Z,23.09
2023-08-15T03:23:43.168Z,23.09
2023-08-15T03:24:36.857Z,23.09
2023-08-15T03:25:36.782Z,23.08
2023-08-15T03:26:36.825Z,23.08
2023-08-15T03:27:36.837Z,23.08
2023-08-15T03:28:36.735Z,23.07
2023-08-15T03:29:43.037Z,23.07
2023-08-15T03:30:36.819Z,23.07
2023-08-15T03:31:36.756Z,23.06
2023-08-15T03:32:36.906Z,23.06
2023-08-15T03:33:36.719Z,23.05
2023-08-15T03:34:36.730Z,23.05
2023-08-15T03:35:42.999Z,23.04
2023-08-15T03:36:36.717Z,23.04
2023-08-15T03:37:36.678Z,23.04
2023-08-15T03:38:36.611Z,23.04
2023-08-15T03:39:36.608Z,23.04
2023-08-15T03:40:36.718Z,23.04
2023-08-15T03:41:43.705Z,23.04
2023-08-15T03:42:36.636Z,23.04
2023-08-15T03:43:36.639Z,23.04
2023-08-15T03:44:36.705Z,23.05
2023-08-15T03:45:36.585Z,23.05
2023-08-15T03:46:36.809Z,23.05
2023-08-15T03:47:42.830Z,23.05
2023-08-15T03:48:36.500Z,23.04
2023-08-15T03:49:36.593Z,23.04
2023-08-15T03:50:36.740Z,23.03
2023-08-15T03:51:46.438Z,23.02
2023-08-15T03:52:38.138Z,23.01
2023-08-15T03:53:42.859Z,22.99
2023-08-15T03:54:36.479Z,22.98
2023-08-15T03:55:36.439Z,22.97
2023-08-15T03:56:36.391Z,22.95
2023-08-15T03:57:37.092Z,22.94
2023-08-15T03:58:42.755Z,22.93
2023-08-15T03:59:36.421Z,22.92
2023-08-15T04:00:36.344Z,22.92
2023-08-15T04:01:36.376Z,22.91
2023-08-15T04:02:36.638Z,22.91
2023-08-15T04:03:36.333Z,22.90
2023-08-15T04:04:42.645Z,22.90
2023-08-15T04:05:36.281Z,22.90
2023-08-15T04:06:36.288Z,22.90
2023-08-15T04:07:36.315Z,22.90
2023-08-15T04:08:36.232Z,22.91
2023-08-15T04:09:36.274Z,22.91
2023-08-15T04:10:42.544Z,22.90
2023-08-15T04:11:36.256Z,22.90
2023-08-15T04:12:36.225Z,22.90
2023-08-15T04:13:36.237Z,22.89
2023-08-15T04:14:36.180Z,22.89
2023-08-15T04:15:36.204Z,22.89
2023-08-15T04:16:42.526Z,22.89
2023-08-15T04:17:36.142Z,22.90
2023-08-15T04:18:36.135Z,22.90
2023-08-15T04:19:36.145Z,22.89
2023-08-15T04:20:36.094Z,22.88
2023-08-15T04:21:42.450Z,22.88
2023-08-15T04:22:36.106Z,22.87
2023-08-15T04:23:36.057Z,22.86
2023-08-15T04:24:36.027Z,22.85
2023-08-15T04:25:36.249Z,22.84
2023-08-15T04:26:36.015Z,22.83
2023-08-15T04:27:42.328Z,22.83
2023-08-15T04:28:36.042Z,22.82
2023-08-15T04:29:36.006Z,22.82
2023-08-15T04:30:35.986Z,22.82
2023-08-15T04:31:35.984Z,22.82
2023-08-15T04:32:42.299Z,22.82
2023-08-15T04:33:35.934Z,22.83
2023-08-15T04:34:35.920Z,22.84
2023-08-15T04:35:36.191Z,22.84
2023-08-15T04:36:35.930Z,22.85
2023-08-15T04:37:42.188Z,22.85
2023-08-15T04:38:36.099Z,22.85
2023-08-15T04:39:35.851Z,22.86
2023-08-15T04:40:35.915Z,22.86
2023-08-15T04:41:35.814Z,22.87
2023-08-15T04:42:42.182Z,22.88
2023-08-15T04:43:35.976Z,22.88
2023-08-15T04:44:35.751Z,22.89
2023-08-15T04:45:35.833Z,22.90
2023-08-15T04:46:35.769Z,22.91
2023-08-15T04:47:42.095Z,22.92
2023-08-15T04:48:36.715Z,22.92
2023-08-15T04:49:35.717Z,22.93
2023-08-15T04:50:35.676Z,22.93
2023-08-15T04:51:35.856Z,22.94
2023-08-15T04:52:42.014Z,22.94
2023-08-15T04:53:35.720Z,22.95
2023-08-15T04:54:35.744Z,22.96
2023-08-15T04:55:35.753Z,22.96
2023-08-15T04:56:35.782Z,22.97
2023-08-15T04:57:42.058Z,22.97
2023-08-15T04:58:35.688Z,22.97
2023-08-15T04:59:35.749Z,22.97
2023-08-15T05:00:35.685Z,22.96
2023-08-15T05:01:36.902Z,22.96
2023-08-15T05:02:35.805Z,22.95
2023-08-15T05:03:41.809Z,22.94
2023-08-15T05:04:35.587Z,22.93
2023-08-15T05:05:35.583Z,22.93
2023-08-15T05:06:35.697Z,22.92
2023-08-15T05:07:35.498Z,22.91
2023-08-15T05:08:41.779Z,22.91
2023-08-15T05:09:35.506Z,22.91
2023-08-15T05:10:35.522Z,22.90
2023-08-15T05:11:35.477Z,22.90
2023-08-15T05:12:35.424Z,22.90
2023-08-15T05:13:35.450Z,22.91
2023-08-15T05:14:41.702Z,22.91
2023-08-15T05:15:35.572Z,22.92
2023-08-15T05:16:35.383Z,22.93
2023-08-15T05:17:35.442Z,22.93
2023-08-15T05:18:35.334Z,22.94
2023-08-15T05:19:41.637Z,22.94
2023-08-15T05:20:35.327Z,22.94
2023-08-15T05:21:35.380Z,22.95
2023-08-15T05:22:35.344Z,22.96
2023-08-15T05:23:35.310Z,22.97
2023-08-15T05:24:35.328Z,22.98
2023-08-15T05:25:41.700Z,22.98
2023-08-15T05:26:35.298Z,22.99
2023-08-15T05:27:35.264Z,22.99
2023-08-15T05:28:35.297Z,22.99
2023-08-15T05:29:35.291Z,23.00
2023-08-15T05:30:35.265Z,23.00
2023-08-15T05:31:41.622Z,23.00
2023-08-15T05:32:35.346Z,23.01
2023-08-15T05:33:35.168Z,23.01
2023-08-15T05:34:35.175Z,23.02
2023-08-15T05:35:35.225Z,23.02
2023-08-15T05:36:35.142Z,23.03
2023-08-15T05:37:41.505Z,23.03
2023-08-15T05:38:35.083Z,23.04
2023-08-15T05:39:35.109Z,23.04
2023-08-15T05:40:35.113Z,23.04
2023-08-15T05:41:35.078Z,23.05
2023-08-15T05:42:41.322Z,23.05
2023-08-15T05:43:35.148Z,23.06
2023-08-15T05:44:35.164Z,23.07
2023-08-15T05:45:35.034Z,23.07
2023-08-15T05:46:35.071Z,23.08
2023-08-15T05:47:41.437Z,23.09
2023-08-15T05:48:34.959Z,23.09
2023-08-15T05:49:35.163Z,23.09
2023-08-15T05:50:34.956Z,23.09
2023-08-15T05:51:34.949Z,23.10
2023-08-15T05:52:41.273Z,23.10
2023-08-15T05:53:34.947Z,23.11
2023-08-15T05:54:34.900Z,23.12
2023-08-15T05:55:34.969Z,23.13
2023-08-15T05:56:35.017Z,23.14
2023-08-15T05:57:41.237Z,23.16
2023-08-15T05:58:34.856Z,23.17
2023-08-15T05:59:34.876Z,23.19
2023-08-15T06:00:34.941Z,23.20
2023-08-15T06:01:34.814Z,23.21
2023-08-15T06:02:34.923Z,23.22
2023-08-15T06:03:52.149Z,23.23
2023-08-15T06:04:36.321Z,23.23
2023-08-15T06:05:34.796Z,23.24
2023-08-15T06:06:34.736Z,23.25
2023-08-15T06:07:35.430Z,23.26
2023-08-15T06:08:34.738Z,23.27
2023-08-15T06:10:34.897Z,23.31
2023-08-15T06:11:34.747Z,23.33
2023-08-15T06:12:34.726Z,23.35
2023-08-15T06:13:34.763Z,23.37
2023-08-15T06:14:40.991Z,23.40
2023-08-15T06:15:34.712Z,23.42
2023-08-15T06:16:34.759Z,23.45
2023-08-15T06:17:34.669Z,23.48
2023-08-15T06:18:34.805Z,23.50
2023-08-15T06:19:34.549Z,23.53
2023-08-15T06:20:40.802Z,23.55
2023-08-15T06:21:34.576Z,23.59
2023-08-15T06:22:34.597Z,23.62
2023-08-15T06:23:34.733Z,23.66
2023-08-15T06:24:34.521Z,23.69
2023-08-15T06:25:34.485Z,23.73
2023-08-15T06:26:40.775Z,23.77
2023-08-15T06:27:34.514Z,23.80
2023-08-15T06:28:34.452Z,23.84
2023-08-15T06:29:34.462Z,23.87
2023-08-15T06:30:34.780Z,23.90
2023-08-15T06:31:40.731Z,23.93
2023-08-15T06:32:34.449Z,23.95
2023-08-15T06:33:34.394Z,23.97
2023-08-15T06:34:34.402Z,23.99
2023-08-15T06:35:35.021Z,24.01
2023-08-15T06:36:34.431Z,24.03
2023-08-15T06:37:40.672Z,24.05
2023-08-15T06:38:34.416Z,24.07
2023-08-15T06:39:34.365Z,24.09
2023-08-15T06:40:34.561Z,24.11
2023-08-15T06:41:34.304Z,24.13
2023-08-15T06:42:34.359Z,24.15
2023-08-15T06:43:40.576Z,24.17
2023-08-15T06:44:34.237Z,24.20
2023-08-15T06:45:34.241Z,24.23
2023-08-15T06:46:34.417Z,24.27
2023-08-15T06:47:34.228Z,24.30
2023-08-15T06:48:34.263Z,24.34
2023-08-15T06:49:40.557Z,24.38
2023-08-15T06:50:34.216Z,24.43
2023-08-15T06:51:34.162Z,24.47
2023-08-15T06:52:34.189Z,24.51
2023-08-15T06:53:34.220Z,24.55
2023-08-15T06:54:34.250Z,24.59
2023-08-15T06:55:40.367Z,24.63
2023-08-15T06:56:34.268Z,24.68
2023-08-15T06:57:34.097Z,24.73
2023-08-15T06:58:34.113Z,24.78
2023-08-15T06:59:34.068Z,24.83
2023-08-15T07:00:34.078Z,24.89
2023-08-15T07:01:40.310Z,24.94
2023-08-15T07:02:34.313Z,24.98
2023-08-15T07:03:34.101Z,25.02
2023-08-15T07:04:33.971Z,25.06
2023-08-15T07:05:34.063Z,25.10
2023-08-15T07:06:40.374Z,25.13
2023-08-15T07:07:33.961Z,25.16
2023-08-15T07:08:33.963Z,25.19
2023-08-15T07:09:33.966Z,25.22
2023-08-15T07:10:33.993Z,25.26
2023-08-15T07:11:40.300Z,25.31
2023-08-15T07:12:33.877Z,25.36
2023-08-15T07:13:33.878Z,25.41
2023-08-15T07:14:34.040Z,25.46
2023-08-15T07:15:33.971Z,25.51
2023-08-15T07:16:40.209Z,25.57
2023-08-15T07:17:33.844Z,25.63
2023-08-15T07:18:33.826Z,25.69
2023-08-15T07:19:33.855Z,25.75
2023-08-15T07:20:34.514Z,25.81
2023-08-15T07:21:40.138Z,25.87
2023-08-15T07:22:33.833Z,25.93
2023-08-15T07:23:33.748Z,25.98
2023-08-15T07:24:33.786Z,26.03
2023-08-15T07:25:33.770Z,26.09
2023-08-15T07:26:34.105Z,26.14
2023-08-15T07:27:40.097Z,26.20
2023-08-15T07:28:33.745Z,26.25
2023-08-15T07:29:33.696Z,26.31
2023-08-15T07:30:33.720Z,26.36
2023-08-15T07:31:33.729Z,26.42
2023-08-15T07:32:33.731Z,26.47
2023-08-15T07:33:39.976Z,26.53
2023-08-15T07:34:33.605Z,26.59
2023-08-15T07:35:33.626Z,26.64
2023-08-15T07:36:33.607Z,26.70
2023-08-15T07:37:33.549Z,26.77
2023-08-15T07:38:33.540Z,26.83
2023-08-15T07:39:39.904Z,26.89
2023-08-15T07:40:33.589Z,26.96
2023-08-15T07:41:33.536Z,27.03
2023-08-15T07:42:33.559Z,27.09
2023-08-15T07:43:33.597Z,27.16
2023-08-15T07:44:39.805Z,27.23
2023-08-15T07:45:33.551Z,27.30
2023-08-15T07:46:33.483Z,27.37
2023-08-15T07:47:33.495Z,27.44
2023-08-15T07:48:33.476Z,27.52
2023-08-15T07:49:39.741Z,27.59
2023-08-15T07:50:33.451Z,27.67
2023-08-15T07:51:33.384Z,27.74
2023-08-15T07:52:33.359Z,27.80
2023-08-15T07:53:33.403Z,27.86
2023-08-15T07:54:39.713Z,27.91
2023-08-15T07:55:33.447Z,27.96
2023-08-15T07:56:33.347Z,28.01
2023-08-15T07:57:33.370Z,28.06
2023-08-15T07:58:33.372Z,28.11
2023-08-15T07:59:39.556Z,28.15
2023-08-15T08:00:33.283Z,28.20
2023-08-15T08:01:33.347Z,28.25
2023-08-15T08:02:33.303Z,28.31
2023-08-15T08:03:33.288Z,28.37
2023-08-15T08:04:39.618Z,28.43
2023-08-15T08:05:34.222Z,28.50
2023-08-15T08:06:40.487Z,28.57
2023-08-15T08:07:34.792Z,28.65
2023-08-15T08:08:33.249Z,28.73
2023-08-15T08:09:39.529Z,28.81
2023-08-15T08:10:33.208Z,28.89
2023-08-15T08:11:33.139Z,28.97
2023-08-15T08:12:33.172Z,29.05
2023-08-15T08:13:33.079Z,29.12
2023-08-15T08:14:48.682Z,29.18
2023-08-15T08:15:34.581Z,29.24
2023-08-15T08:16:33.150Z,29.29
2023-08-15T08:17:33.132Z,29.33
2023-08-15T08:18:33.007Z,29.37
2023-08-15T08:19:33.129Z,29.41
2023-08-15T08:20:39.385Z,29.47
2023-08-15T08:21:33.064Z,29.53
2023-08-15T08:22:33.054Z,29.60
2023-08-15T08:23:33.032Z,29.67
2023-08-15T08:24:33.029Z,29.74
2023-08-15T08:25:39.284Z,29.82
2023-08-15T08:26:32.991Z,29.90
2023-08-15T08:27:32.918Z,29.97
2023-08-15T08:28:33.012Z,30.04
2023-08-15T08:29:32.888Z,30.09
2023-08-15T08:30:34.059Z,30.13
2023-08-15T08:31:39.299Z,30.16
2023-08-15T08:32:32.967Z,30.18
2023-08-15T08:33:32.912Z,30.20
2023-08-15T08:34:33.034Z,30.21
2023-08-15T08:35:32.858Z,30.24
2023-08-15T08:36:39.176Z,30.27
2023-08-15T08:37:32.944Z,30.31
2023-08-15T08:38:32.783Z,30.37
2023-08-15T08:39:33.004Z,30.44
2023-08-15T08:40:32.766Z,30.51
2023-08-15T08:41:32.746Z,30.59
2023-08-15T08:42:39.108Z,30.67
2023-08-15T08:43:32.736Z,30.75
2023-08-15T08:44:32.767Z,30.84
2023-08-15T08:45:33.693Z,30.93
2023-08-15T08:46:32.697Z,31.04
2023-08-15T08:47:38.948Z,31.14
2023-08-15T08:48:32.706Z,31.24
2023-08-15T08:49:32.656Z,31.34
2023-08-15T08:50:32.616Z,31.44
2023-08-15T08:51:32.635Z,31.54
2023-08-15T08:52:32.590Z,31.63
2023-08-15T08:53:38.904Z,31.71
2023-08-15T08:54:53.820Z,31.77
2023-08-15T08:55:33.994Z,31.82
2023-08-15T08:56:32.607Z,31.88
2023-08-15T08:57:32.593Z,31.93
2023-08-15T08:58:33.606Z,31.98
2023-08-15T08:59:38.793Z,32.04
2023-08-15T09:00:32.601Z,32.09
2023-08-15T09:01:33.516Z,32.13
2023-08-15T09:02:32.622Z,32.18
2023-08-15T09:03:32.557Z,32.23
2023-08-15T09:04:32.517Z,32.29
2023-08-15T09:05:38.747Z,32.35
2023-08-15T09:06:32.429Z,32.41
2023-08-15T09:07:32.436Z,32.47
2023-08-15T09:08:32.394Z,32.52
2023-08-15T09:09:32.398Z,32.56
2023-08-15T09:10:32.409Z,32.64
2023-08-15T09:11:38.720Z,32.75
2023-08-15T09:12:32.344Z,32.86
2023-08-15T09:13:32.346Z,32.96
2023-08-15T09:14:32.377Z,33.09
2023-08-15T09:15:35.305Z,33.27
2023-08-15T09:16:39.570Z,33.43
2023-08-15T09:17:32.872Z,33.50
2023-08-15T09:18:32.336Z,33.49
2023-08-15T09:19:32.305Z,33.47
2023-08-15T09:20:32.955Z,33.43
2023-08-15T09:21:32.298Z,33.39
2023-08-15T09:22:40.261Z,33.33
2023-08-15T09:23:33.182Z,33.25
2023-08-15T09:24:32.269Z,33.16
2023-08-15T09:25:32.298Z,33.09
2023-08-15T09:26:32.197Z,33.03
2023-08-15T09:27:32.286Z,32.97
2023-08-15T09:28:38.400Z,32.91
2023-08-15T09:29:32.178Z,32.84
2023-08-15T09:30:32.247Z,32.76
2023-08-15T09:31:32.235Z,32.67
2023-08-15T09:32:32.130Z,32.58
2023-08-15T09:33:38.387Z,32.48
2023-08-15T09:34:33.100Z,32.39
2023-08-15T09:35:33.671Z,32.34
2023-08-15T09:36:32.289Z,32.37
2023-08-15T09:37:32.074Z,32.47
2023-08-15T09:38:38.302Z,32.56
2023-08-15T09:39:32.050Z,32.55
2023-08-15T09:40:32.051Z,32.49
2023-08-15T09:41:33.021Z,32.41
2023-08-15T09:42:31.985Z,32.34
2023-08-15T09:43:38.245Z,32.29
2023-08-15T09:44:31.998Z,32.25
2023-08-15T09:45:32.139Z,32.23
2023-08-15T09:46:31.925Z,32.24
2023-08-15T09:47:31.952Z,32.30
2023-08-15T09:48:31.917Z,32.37
2023-08-15T09:49:38.237Z,32.42
2023-08-15T09:50:31.920Z,32.43
2023-08-15T09:51:32.040Z,32.42
2023-08-15T09:52:31.959Z,32.41
2023-08-15T09:53:31.845Z,32.43
2023-08-15T09:54:39.016Z,32.43
2023-08-15T09:55:31.878Z,32.41
2023-08-15T09:56:32.568Z,32.37
2023-08-15T09:57:31.839Z,32.32
2023-08-15T09:58:31.796Z,32.28
2023-08-15T09:59:31.799Z,32.24
2023-08-15T10:00:38.150Z,32.21
2023-08-15T10:01:32.692Z,32.18
2023-08-15T10:02:31.806Z,32.15
2023-08-15T10:03:32.810Z,32.12
2023-08-15T10:04:31.708Z,32.08
2023-08-15T10:05:38.070Z,32.02
2023-08-15T10:06:31.730Z,31.94
2023-08-15T10:07:31.732Z,31.86
2023-08-15T10:08:31.734Z,31.77
2023-08-15T10:09:31.740Z,31.70
2023-08-15T10:10:31.749Z,31.65
2023-08-15T10:11:38.009Z,31.64
2023-08-15T10:12:31.671Z,31.67
2023-08-15T10:13:31.584Z,31.77
2023-08-15T10:14:31.580Z,31.90
2023-08-15T10:15:31.761Z,32.03
2023-08-15T10:16:32.640Z,32.10
2023-08-15T10:17:37.879Z,32.09
2023-08-15T10:18:31.606Z,32.02
2023-08-15T10:19:31.554Z,31.91
2023-08-15T10:20:31.583Z,31.80
2023-08-15T10:21:31.487Z,31.68
2023-08-15T10:22:37.724Z,31.57
2023-08-15T10:23:31.462Z,31.46
2023-08-15T10:24:31.472Z,31.37
2023-08-15T10:25:31.454Z,31.32
2023-08-15T10:26:32.300Z,31.29
2023-08-15T10:27:31.450Z,31.22
2023-08-15T10:28:38.652Z,31.10
2023-08-15T10:29:31.513Z,30.93
2023-08-15T10:30:31.509Z,30.74
2023-08-15T10:31:31.419Z,30.54
2023-08-15T10:32:31.365Z,30.35
2023-08-15T10:33:37.667Z,30.18
2023-08-15T10:34:32.346Z,30.05
2023-08-15T10:35:32.980Z,29.97
2023-08-15T10:36:31.285Z,29.94
2023-08-15T10:37:32.277Z,29.94
2023-08-15T10:38:37.492Z,29.94
2023-08-15T10:39:32.269Z,29.91
2023-08-15T10:40:31.243Z,29.87
2023-08-15T10:41:31.265Z,29.83
2023-08-15T10:42:32.239Z,29.83
2023-08-15T10:43:31.244Z,29.89
2023-08-15T10:44:37.545Z,30.00
2023-08-15T10:45:31.196Z,30.15
2023-08-15T10:46:31.214Z,30.40
2023-08-15T10:47:32.155Z,30.83
2023-08-15T10:48:32.131Z,31.24
2023-08-15T10:49:37.394Z,31.54
2023-08-15T10:50:31.281Z,31.78
2023-08-15T10:51:31.271Z,31.99
2023-08-15T10:52:31.092Z,32.17
2023-08-15T10:53:31.207Z,32.39
2023-08-15T10:54:38.308Z,32.67
2023-08-15T10:55:31.100Z,32.95
2023-08-15T10:56:31.064Z,33.23
2023-08-15T10:57:31.034Z,33.48
2023-08-15T10:58:31.092Z,33.67
2023-08-15T10:59:37.304Z,33.85
2023-08-15T11:00:31.014Z,33.97
2023-08-15T11:01:31.015Z,34.08
2023-08-15T11:02:32.097Z,34.24
2023-08-15T11:03:31.119Z,34.45
2023-08-15T11:04:37.291Z,34.67
2023-08-15T11:05:31.007Z,34.88
2023-08-15T11:06:31.853Z,35.09
2023-08-15T11:07:31.028Z,35.28
2023-08-15T11:08:30.934Z,35.45
2023-08-15T11:09:30.990Z,35.61
2023-08-15T11:10:37.225Z,35.76
2023-08-15T11:11:31.018Z,35.90
2023-08-15T11:12:30.872Z,36.05
2023-08-15T11:13:30.825Z,36.19
2023-08-15T11:14:32.042Z,36.32
2023-08-15T11:15:30.965Z,36.45
2023-08-15T11:16:37.145Z,36.60
2023-08-15T11:17:30.877Z,36.78
2023-08-15T11:18:30.782Z,36.96
2023-08-15T11:19:30.842Z,37.16
2023-08-15T11:20:30.740Z,37.34
2023-08-15T11:21:30.859Z,37.51
2023-08-15T11:22:36.983Z,37.67
2023-08-15T11:23:30.847Z,37.86
2023-08-15T11:24:31.666Z,38.07
2023-08-15T11:25:31.632Z,38.32
2023-08-15T11:26:30.752Z,38.59
2023-08-15T11:27:30.675Z,38.88
2023-08-15T11:28:36.932Z,39.17
2023-08-15T11:29:30.637Z,39.46
2023-08-15T11:30:30.655Z,39.75
2023-08-15T11:31:30.673Z,40.04
2023-08-15T11:32:31.576Z,40.33
2023-08-15T11:33:30.645Z,40.61
2023-08-15T11:34:36.860Z,40.90
2023-08-15T11:35:30.556Z,41.20
2023-08-15T11:36:30.541Z,41.48
2023-08-15T11:37:31.538Z,41.73
2023-08-15T11:38:30.539Z,41.97
2023-08-15T11:39:36.912Z,42.19
2023-08-15T11:40:31.543Z,42.34
2023-08-15T11:41:30.821Z,42.46
2023-08-15T11:42:30.502Z,42.55
2023-08-15T11:43:31.410Z,42.63
2023-08-15T11:44:30.496Z,42.71
2023-08-15T11:45:37.728Z,42.81
2023-08-15T11:46:36.369Z,42.91
2023-08-15T11:47:32.018Z,43.04
2023-08-15T11:48:31.380Z,43.15
2023-08-15T11:49:31.014Z,43.24
2023-08-15T11:50:43.587Z,43.29
2023-08-15T11:51:38.183Z,43.32
2023-08-15T11:52:30.430Z,43.36
2023-08-15T11:53:30.350Z,43.43
2023-08-15T11:54:30.367Z,43.51
2023-08-15T11:55:30.321Z,43.59
2023-08-15T11:56:30.403Z,43.67
2023-08-15T11:57:36.636Z,43.75
2023-08-15T11:58:30.293Z,43.82
2023-08-15T11:59:30.308Z,43.89
2023-08-15T12:00:30.300Z,43.96
2023-08-15T12:01:30.323Z,44.04
2023-08-15T12:02:30.368Z,44.12
2023-08-15T12:03:37.518Z,44.18
2023-08-15T12:04:31.241Z,44.22
2023-08-15T12:05:30.304Z,44.26
2023-08-15T12:06:30.569Z,44.28
2023-08-15T12:07:30.261Z,44.29
2023-08-15T12:08:36.481Z,44.30
2023-08-15T12:09:30.816Z,44.30
2023-08-15T12:10:30.192Z,44.29
2023-08-15T12:11:30.117Z,44.30
2023-08-15T12:12:30.112Z,44.36
2023-08-15T12:13:36.385Z,44.44
2023-08-15T12:14:42.084Z,44.54
2023-08-15T12:15:31.606Z,44.64
2023-08-15T12:16:30.163Z,44.75
2023-08-15T12:17:30.078Z,44.88
2023-08-15T12:18:38.410Z,45.00
2023-08-15T12:19:30.413Z,45.05
2023-08-15T12:20:30.247Z,45.06
2023-08-15T12:21:30.044Z,45.08
2023-08-15T12:22:31.338Z,45.06
2023-08-15T12:23:36.301Z,45.04
2023-08-15T12:24:29.984Z,45.08
2023-08-15T12:25:31.003Z,45.16
2023-08-15T12:26:29.980Z,45.28
2023-08-15T12:27:30.098Z,45.35
2023-08-15T12:28:36.352Z,45.43
2023-08-15T12:29:49.371Z,45.56
2023-08-15T12:30:31.686Z,45.71
2023-08-15T12:31:29.933Z,45.85
2023-08-15T12:32:29.997Z,46.00
2023-08-15T12:33:45.755Z,46.13
2023-08-15T12:34:31.494Z,46.25
2023-08-15T12:35:29.893Z,46.32
2023-08-15T12:36:29.916Z,46.39
2023-08-15T12:37:29.843Z,46.44
2023-08-15T12:38:36.129Z,46.47
2023-08-15T12:39:29.830Z,46.46
2023-08-15T12:40:31.512Z,46.42
2023-08-15T12:41:29.836Z,46.35
2023-08-15T12:42:29.905Z,46.27
2023-08-15T12:43:30.731Z,46.19
2023-08-15T12:44:37.029Z,46.14
2023-08-15T12:45:29.820Z,46.11
2023-08-15T12:46:29.773Z,46.11
2023-08-15T12:47:29.810Z,46.14
2023-08-15T12:48:29.784Z,46.17
2023-08-15T12:49:29.691Z,46.19
2023-08-15T12:50:35.976Z,46.20
2023-08-15T12:51:29.701Z,46.20
2023-08-15T12:52:30.624Z,46.19
2023-08-15T12:53:29.967Z,46.15